Time;durP1;ratioP1;P1;durP2;ratioP2;P2;SDS_P1;SDS_P2;PMS_P1;PMS_P2;Temp;Humidity;BMP_temperature;BMP_pressure;BME280_temperature;BME280_humidity;BME280_pressure;Samples;Min_cycle;Max_cycle;Signal;HPM_P1;HPM_P2
2022/11/25 00:01:08;;;;;;;232.12;30.58;;;;;;;1.53;100.00;98739.66;4215860;33;20087;-70
2022/11/25 00:03:35;;;;;;;138.20;31.17;;;;;;;1.63;100.00;98761.38;4214280;33;20061;-69
2022/11/25 00:06:14;;;;;;;135.05;32.45;;;;;;;1.49;100.00;98749.06;4210583;34;20074;-69
2022/11/25 00:08:42;;;;;;;130.73;30.55;;;;;;;1.69;100.00;98744.66;4213349;34;20071;-70
2022/11/25 00:11:10;;;;;;;127.18;28.33;;;;;;;1.35;100.00;98706.53;4213229;34;20051;-70
2022/11/25 00:13:45;;;;;;;119.20;30.62;;;;;;;1.62;100.00;98749.09;4216365;34;20598;-70
2022/11/25 00:16:15;;;;;;;109.28;28.60;;;;;;;1.69;100.00;98744.66;4214688;34;20080;-71
2022/11/25 00:18:50;;;;;;;144.98;29.08;;;;;;;1.66;100.00;98734.44;4215872;34;20070;-70
2022/11/25 00:21:21;;;;;;;127.82;28.17;;;;;;;1.59;100.00;98734.38;4215961;34;20040;-69
2022/11/25 00:23:53;;;;;;;124.90;28.40;;;;;;;1.55;100.00;98742.97;4212544;34;20055;-70
2022/11/25 00:26:21;;;;;;;119.15;26.70;;;;;;;1.70;100.00;98729.53;4209398;34;20076;-70
2022/11/25 00:28:48;;;;;;;145.87;28.30;;;;;;;1.56;100.00;98739.28;4181755;34;20044;-70
2022/11/25 00:31:17;;;;;;;127.72;27.40;;;;;;;1.35;100.00;98711.84;4180464;34;20040;-70
2022/11/25 00:33:45;;;;;;;130.73;27.83;;;;;;;1.62;100.00;98733.19;4184947;34;20125;-70
2022/11/25 00:36:22;;;;;;;118.68;27.62;;;;;;;1.57;100.00;98746.25;4193384;34;20067;-70
2022/11/25 00:39:02;;;;;;;124.47;26.15;;;;;;;1.43;100.00;98714.31;4189760;34;20062;-70
2022/11/25 00:44:34;;;;;;;118.28;27.05;;;;;;;1.66;100.00;98730.94;4180260;34;20063;-69
2022/11/25 00:47:09;;;;;;;119.13;26.48;;;;;;;1.90;100.00;98746.34;4179051;34;20048;-69
2022/11/25 00:49:38;;;;;;;103.60;25.67;;;;;;;1.53;100.00;98750.28;4182527;34;20104;-70
2022/11/25 00:52:04;;;;;;;113.53;26.73;;;;;;;1.56;100.00;98742.75;4181457;34;20044;-70
2022/11/25 00:54:31;;;;;;;87.15;23.65;;;;;;;1.76;100.00;98749.97;4181707;34;20073;-70
2022/11/25 00:56:58;;;;;;;83.60;22.00;;;;;;;1.45;100.00;98720.28;4179884;34;20035;-69
2022/11/25 00:59:25;;;;;;;95.62;23.17;;;;;;;1.47;100.00;98753.72;4180582;34;20129;-70
2022/11/25 03:00:09;;;;;;;105.40;24.75;;;;;;;1.52;100.00;98812.34;5020108;28;20037;31
2022/11/25 03:02:39;;;;;;;99.15;22.40;;;;;;;1.64;100.00;98816.06;4256732;33;20049;-69
2022/11/25 03:05:05;;;;;;;108.18;23.25;;;;;;;1.47;100.00;98806.78;4267323;33;20037;-70
2022/11/25 03:07:32;;;;;;;98.10;21.87;;;;;;;1.52;100.00;98809.69;4268076;33;20934;-70
2022/11/25 03:09:58;;;;;;;85.45;22.83;;;;;;;1.61;100.00;98813.81;4269189;33;20085;-70
2022/11/25 03:12:25;;;;;;;78.22;20.95;;;;;;;1.70;100.00;98817.94;4252927;33;20104;-69
2022/11/25 03:14:52;;;;;;;108.53;22.10;;;;;;;1.69;100.00;98818.97;4251755;33;20052;-70
2022/11/25 03:17:19;;;;;;;104.07;26.92;;;;;;;1.45;100.00;98781.28;4251530;33;20069;-70
2022/11/25 03:19:45;;;;;;;117.43;24.55;;;;;;;1.54;100.00;98810.31;4252715;33;20042;-70
2022/11/25 03:22:12;;;;;;;146.20;26.42;;;;;;;1.65;100.00;98823.03;4252599;33;20127;-70
2022/11/25 03:24:38;;;;;;;118.68;28.25;;;;;;;1.67;100.00;98821.00;4242545;33;20087;-70
2022/11/25 03:27:05;;;;;;;177.20;35.55;;;;;;;1.44;100.00;98792.09;4236691;33;20478;-70
2022/11/25 03:29:31;;;;;;;125.85;28.05;;;;;;;1.78;100.00;98823.06;4238457;33;20412;-70
2022/11/25 03:31:59;;;;;;;154.95;24.65;;;;;;;1.78;100.00;98823.06;4239020;33;20039;-70
2022/11/25 03:34:26;;;;;;;177.80;28.23;;;;;;;1.73;100.00;98814.91;4238430;33;20077;-70
2022/11/25 03:36:52;;;;;;;106.18;22.55;;;;;;;1.78;100.00;98814.31;4241920;33;20068;-69
2022/11/25 03:39:21;;;;;;;112.40;26.48;;;;;;;1.65;100.00;98812.41;4238131;33;20042;-70
2022/11/25 03:41:48;;;;;;;151.63;28.17;;;;;;;1.71;100.00;98834.69;4223414;33;20191;-70
2022/11/25 03:44:18;;;;;;;181.37;27.75;;;;;;;1.69;100.00;98834.91;4247797;33;20080;-70
2022/11/25 03:46:45;;;;;;;150.68;29.17;;;;;;;1.79;100.00;98819.41;4222602;34;20038;-70
2022/11/25 03:49:11;;;;;;;163.77;29.05;;;;;;;1.70;100.00;98794.06;4222262;34;20039;-70
2022/11/25 03:51:38;;;;;;;194.48;34.88;;;;;;;1.68;100.00;98788.13;4227470;33;20076;-69
2022/11/25 03:54:05;;;;;;;159.48;31.48;;;;;;;1.90;100.00;98825.16;4224286;34;20376;-70
2022/11/25 03:56:34;;;;;;;128.60;27.45;;;;;;;1.92;100.00;98818.66;4227033;33;20432;-70
2022/11/25 03:59:00;;;;;;;133.80;25.17;;;;;;;1.93;100.00;98822.09;4225435;33;20068;-70
2022/11/25 04:01:27;;;;;;;175.23;31.98;;;;;;;1.95;100.00;98822.75;4252047;33;20058;-71
2022/11/25 04:03:54;;;;;;;184.43;33.25;;;;;;;1.91;100.00;98805.56;4252536;33;20038;-70
2022/11/25 04:06:22;;;;;;;166.45;29.67;;;;;;;2.00;100.00;98831.75;4252243;33;20057;-70
2022/11/25 04:08:49;;;;;;;105.40;23.12;;;;;;;2.01;100.00;98827.28;4226766;33;20086;-69
2022/11/25 04:11:16;;;;;;;103.93;22.35;;;;;;;2.02;100.00;98823.59;4225911;33;20130;-69
2022/11/25 04:13:43;;;;;;;98.75;23.35;;;;;;;1.72;100.00;98786.69;4238168;33;20392;-70
2022/11/25 04:16:24;;;;;;;100.40;25.42;;;;;;;1.88;100.00;98821.91;4238060;33;20060;-70
2022/11/25 04:18:51;;;;;;;94.32;24.45;;;;;;;1.89;100.00;98802.31;4236335;33;20035;-70
2022/11/25 04:21:24;;;;;;;112.53;26.45;;;;;;;1.95;100.00;98828.06;4239643;33;20496;-70
2022/11/25 04:23:50;;;;;;;104.50;27.65;;;;;;;1.98;100.00;98827.66;4252090;33;20073;-70
2022/11/25 04:26:17;;;;;;;98.05;22.13;;;;;;;1.92;100.00;98823.16;4253823;33;20087;-69
2022/11/25 04:28:44;;;;;;;113.35;23.80;;;;;;;1.48;100.00;98789.87;4248959;33;20071;-68
2022/11/25 04:31:11;;;;;;;138.27;30.85;;;;;;;1.56;100.00;98795.81;4267642;33;20437;-70
2022/11/25 04:33:43;;;;;;;118.50;24.55;;;;;;;1.85;100.00;98822.28;4267123;33;20041;-70
2022/11/25 04:36:10;;;;;;;108.12;25.58;;;;;;;1.57;100.00;98796.66;4268313;33;20034;-69
2022/11/25 04:38:36;;;;;;;104.30;24.98;;;;;;;1.71;100.00;98835.50;4266539;33;20490;-68
2022/11/25 04:41:04;;;;;;;99.93;24.83;;;;;;;1.73;100.00;98836.13;4268292;33;20061;-69
2022/11/25 04:43:31;;;;;;;117.53;25.33;;;;;;;1.89;100.00;98840.28;4268212;33;20034;-69
2022/11/25 04:46:00;;;;;;;104.38;27.40;;;;;;;2.06;100.00;98834.63;4268269;33;20049;-69
2022/11/25 04:48:28;;;;;;;96.53;23.58;;;;;;;2.13;100.00;98838.94;4266483;33;20057;-69
2022/11/25 04:50:55;;;;;;;103.95;25.90;;;;;;;1.91;100.00;98832.12;4265822;33;20049;-68
2022/11/25 04:53:21;;;;;;;98.85;23.87;;;;;;;1.76;100.00;98814.50;4268442;33;20156;-69
2022/11/25 04:55:48;;;;;;;115.53;28.02;;;;;;;1.67;100.00;98844.88;4261717;33;20457;-69
2022/11/25 04:59:38;;;;;;;101.97;27.37;;;;;;;1.75;100.00;98843.91;4268111;33;20182;-69
2022/11/25 05:01:02;;;;;;;94.80;24.25;;;;;;;1.86;100.00;98843.34;4267606;33;20105;-69
2022/11/25 05:03:28;;;;;;;102.53;28.58;;;;;;;1.84;100.00;98839.25;4268127;33;20059;-69
2022/11/25 05:05:55;;;;;;;108.25;25.98;;;;;;;1.67;100.00;98799.75;4251364;33;20034;-69
2022/11/25 05:08:22;;;;;;;112.05;25.58;;;;;;;2.00;100.00;98846.88;4251032;33;20081;-68
2022/11/25 05:10:48;;;;;;;98.32;25.80;;;;;;;1.86;100.00;98818.63;4234843;33;20053;-70
2022/11/25 05:13:15;;;;;;;107.80;25.50;;;;;;;1.97;100.00;98852.56;4249726;33;20171;-69
2022/11/25 05:15:43;;;;;;;98.82;25.33;;;;;;;2.01;100.00;98848.53;4251618;33;20072;-69
2022/11/25 05:18:09;;;;;;;93.47;25.88;;;;;;;2.08;100.00;98854.66;4251221;33;20077;-69
2022/11/25 05:20:39;;;;;;;108.70;25.85;;;;;;;2.04;100.00;98853.41;4249734;33;20078;-69
2022/11/25 05:23:06;;;;;;;94.50;25.73;;;;;;;1.97;100.00;98847.25;4250940;33;20034;-69
2022/11/25 05:25:33;;;;;;;101.57;25.98;;;;;;;1.98;100.00;98857.69;4251725;33;20233;-69
2022/11/25 05:28:00;;;;;;;93.37;26.75;;;;;;;2.21;100.00;98853.88;4254156;33;20397;-69
2022/11/25 05:30:28;;;;;;;93.97;25.65;;;;;;;1.88;100.00;98859.06;4251118;33;20060;-69
2022/11/25 05:32:54;;;;;;;98.60;27.15;;;;;;;1.90;100.00;98862.34;4253797;33;20097;-70
2022/11/25 05:35:21;;;;;;;96.22;31.25;;;;;;;2.04;100.00;98864.03;4225890;34;20060;-69
2022/11/25 05:37:47;;;;;;;75.85;23.50;;;;;;;2.25;100.00;98864.91;4236964;33;20062;-69
2022/11/25 05:40:14;;;;;;;86.20;23.85;;;;;;;2.29;100.00;98859.00;4238935;33;20031;-69
2022/11/25 05:42:42;;;;;;;82.40;25.92;;;;;;;2.51;100.00;98866.84;4237363;33;20056;-70
2022/11/25 05:45:10;;;;;;;83.37;24.45;;;;;;;2.54;100.00;98867.25;4211719;34;20088;-69
2022/11/25 05:47:37;;;;;;;85.95;24.60;;;;;;;2.49;100.00;98872.37;4211305;34;20039;-69
2022/11/25 05:50:04;;;;;;;79.65;23.27;;;;;;;2.44;100.00;98869.50;4211791;34;20176;-70
2022/11/25 05:52:31;;;;;;;85.35;24.70;;;;;;;2.47;100.00;98878.88;4215497;34;20179;-69
2022/11/25 05:54:58;;;;;;;82.97;25.23;;;;;;;2.17;100.00;98874.72;4218532;33;20072;-69
2022/11/25 05:57:25;;;;;;;85.30;23.48;;;;;;;2.14;100.00;98843.25;4225538;33;20102;-70
2022/11/25 05:59:53;;;;;;;95.65;27.62;;;;;;;2.38;100.00;98883.59;4225326;33;20043;-69
2022/11/25 06:02:20;;;;;;;97.12;25.77;;;;;;;2.25;100.00;98862.25;4210265;34;20492;-68
2022/11/25 06:04:47;;;;;;;99.47;28.08;;;;;;;2.33;100.00;98889.50;4210384;34;20058;-70
2022/11/25 06:07:14;;;;;;;84.87;22.90;;;;;;;2.20;100.00;98888.63;4223249;34;20061;-70
2022/11/25 06:09:41;;;;;;;80.15;24.77;;;;;;;2.22;100.00;98894.53;4225699;34;20077;-70
2022/11/25 06:12:07;;;;;;;77.70;25.42;;;;;;;2.17;100.00;98885.34;4235971;33;20118;-70
2022/11/25 06:14:35;;;;;;;86.47;25.98;;;;;;;2.04;100.00;98868.53;4237580;33;20505;-70
2022/11/25 06:17:01;;;;;;;71.32;23.27;;;;;;;2.04;100.00;98869.34;4237094;33;20057;-70
2022/11/25 06:19:28;;;;;;;83.78;23.98;;;;;;;2.13;100.00;98905.34;4239197;33;20039;-71
2022/11/25 06:21:55;;;;;;;85.05;24.05;;;;;;;2.11;100.00;98907.38;4238917;33;20050;-70
2022/11/25 06:24:21;;;;;;;71.85;24.85;;;;;;;2.25;100.00;98904.78;4238684;33;20087;-70
2022/11/25 06:26:49;;;;;;;70.90;22.23;;;;;;;2.33;100.00;98899.28;4238658;33;20078;-71
2022/11/25 06:29:16;;;;;;;74.78;24.35;;;;;;;2.18;100.00;98913.53;4239344;33;20781;-70
2022/11/25 06:31:43;;;;;;;86.53;26.20;;;;;;;2.15;100.00;98908.66;4238892;33;20060;-70
2022/11/25 06:34:12;;;;;;;72.85;23.27;;;;;;;1.96;100.00;98885.44;4238041;33;20073;-69
2022/11/25 06:36:39;;;;;;;69.30;22.83;;;;;;;2.28;100.00;98922.97;4237323;33;20826;-74
2022/11/25 06:39:06;;;;;;;70.15;22.95;;;;;;;2.21;100.00;98917.66;4226432;33;20448;-75
2022/11/25 06:41:32;;;;;;;64.85;19.00;;;;;;;2.22;100.00;98918.44;4238488;33;20030;-74
2022/11/25 06:43:59;;;;;;;82.50;23.15;;;;;;;2.13;100.00;98931.91;4238966;33;20111;-73
2022/11/25 06:46:25;;;;;;;80.22;23.20;;;;;;;2.16;100.00;98914.78;4226015;33;20047;-71
2022/11/25 06:48:52;;;;;;;71.22;23.50;;;;;;;2.31;100.00;98930.56;4225062;34;20367;-73
2022/11/25 06:51:19;;;;;;;61.83;22.00;;;;;;;2.29;100.00;98925.44;4215610;33;20503;-72
2022/11/25 06:53:46;;;;;;;65.70;21.77;;;;;;;2.25;100.00;98918.06;4239378;33;20062;-72
2022/11/25 06:56:21;;;;;;;79.32;23.42;;;;;;;2.31;100.00;98930.56;4237752;33;20413;-71
2022/11/25 06:58:49;;;;;;;58.30;21.60;;;;;;;2.36;100.00;98931.63;4238715;33;20073;-73
2022/11/25 07:01:18;;;;;;;71.00;23.30;;;;;;;2.21;100.00;98900.91;4236437;33;20058;-72
2022/11/25 07:03:46;;;;;;;77.80;24.42;;;;;;;2.41;100.00;98932.84;4243843;33;20049;-72
2022/11/25 07:06:17;;;;;;;70.75;23.55;;;;;;;2.31;100.00;98933.22;4252119;33;20050;-72
2022/11/25 07:08:44;;;;;;;72.60;24.63;;;;;;;2.60;100.00;98925.94;4238177;33;20449;-72
2022/11/25 07:11:52;;;;;;;85.85;24.42;;;;;;;2.66;100.00;98923.31;4250695;33;20074;-72
2022/11/25 07:14:19;;;;;;;78.53;26.23;;;;;;;2.39;100.00;98908.31;4210322;34;20267;-71
2022/11/25 07:16:45;;;;;;;61.00;22.65;;;;;;;2.57;100.00;98937.81;4195955;34;20085;-72
2022/11/25 07:19:15;;;;;;;86.97;22.62;;;;;;;2.51;100.00;98928.78;4194845;34;20047;-72
2022/11/25 07:21:44;;;;;;;68.45;24.45;;;;;;;2.51;100.00;98933.28;4180678;34;20032;-71
2022/11/25 07:24:13;;;;;;;80.80;26.30;;;;;;;2.45;100.00;98932.25;4182494;34;20048;-72
2022/11/25 07:26:41;;;;;;;68.47;23.38;;;;;;;2.26;100.00;98909.09;4182865;34;20071;-73
2022/11/25 07:29:10;;;;;;;70.07;23.58;;;;;;;2.47;100.00;98942.69;4183127;34;20235;-72
2022/11/25 07:31:42;;;;;;;77.65;25.73;;;;;;;2.49;100.00;98941.47;4182210;34;20035;-72
2022/11/25 07:34:20;;;;;;;82.88;26.70;;;;;;;2.45;100.00;98948.19;4183002;34;20074;-73
2022/11/25 07:36:49;;;;;;;89.10;27.15;;;;;;;2.59;100.00;98949.06;4182319;34;20047;-72
2022/11/25 07:39:18;;;;;;;83.37;25.83;;;;;;;2.53;100.00;98950.66;4181513;34;20039;-72
2022/11/25 07:41:48;;;;;;;87.93;29.30;;;;;;;2.62;100.00;98947.84;4151802;34;20180;-72
2022/11/25 07:44:14;;;;;;;78.53;25.92;;;;;;;2.41;100.00;98932.84;4157112;34;20048;-73
2022/11/25 07:46:43;;;;;;;76.25;23.48;;;;;;;2.49;100.00;98937.97;4182231;34;20494;-72
2022/11/25 07:49:16;;;;;;;77.87;24.60;;;;;;;2.65;100.00;98950.94;4191798;34;20105;-73
2022/11/25 07:51:52;;;;;;;69.57;22.83;;;;;;;2.69;100.00;98951.34;4191431;34;20074;-72
2022/11/25 07:54:19;;;;;;;75.40;24.15;;;;;;;2.74;100.00;98954.22;4206234;34;20035;-73
2022/11/25 07:56:48;;;;;;;109.65;27.58;;;;;;;2.77;100.00;98948.50;4207189;34;20069;-73
2022/11/25 07:59:17;;;;;;;98.75;26.62;;;;;;;2.90;100.00;98953.84;4206219;34;20190;-72
2022/11/25 08:01:44;;;;;;;71.82;22.10;;;;;;;2.86;100.00;98915.38;4207715;34;20081;-73
2022/11/25 08:04:12;;;;;;;75.57;23.23;;;;;;;2.54;100.00;98949.66;4207693;34;20179;-72
2022/11/25 08:06:42;;;;;;;81.87;24.83;;;;;;;2.54;100.00;98949.66;4207130;34;20046;-71
2022/11/25 08:09:10;;;;;;;89.65;25.37;;;;;;;2.15;100.00;98919.28;4219406;34;20080;-72
2022/11/25 08:11:38;;;;;;;84.97;27.50;;;;;;;2.24;100.00;98921.75;4221842;34;20098;-73
2022/11/25 08:14:05;;;;;;;67.50;22.45;;;;;;;2.50;100.00;98923.66;4237994;33;20042;-72
2022/11/25 08:16:31;;;;;;;74.78;23.73;;;;;;;2.25;100.00;98918.91;4237680;33;20072;-71
2022/11/25 08:19:00;;;;;;;77.57;26.42;;;;;;;2.43;100.00;98947.56;4230494;33;20102;-70
2022/11/25 08:21:27;;;;;;;71.53;22.73;;;;;;;2.20;100.00;98931.12;4207529;34;20075;-71
2022/11/25 08:23:55;;;;;;;79.15;26.37;;;;;;;2.65;100.00;98963.38;4230599;33;20058;-71
2022/11/25 08:26:24;;;;;;;95.78;25.20;;;;;;;2.95;100.00;98961.19;4241906;33;20079;-71
2022/11/25 08:28:52;;;;;;;77.68;25.20;;;;;;;3.03;100.00;98960.19;4221704;34;20043;-72
2022/11/25 08:31:20;;;;;;;69.57;23.67;;;;;;;3.10;100.00;98937.09;4222337;34;20047;-71
2022/11/25 08:33:47;;;;;;;81.90;26.23;;;;;;;3.04;100.00;98961.84;4221670;34;20047;-71
2022/11/25 08:36:15;;;;;;;77.85;27.08;;;;;;;2.71;100.00;98966.06;4221044;34;20491;-71
2022/11/25 08:38:44;;;;;;;93.82;25.70;;;;;;;2.70;100.00;98934.37;4222736;34;20069;-72
2022/11/25 08:41:14;;;;;;;86.57;26.37;;;;;;;2.82;100.00;98962.00;4195162;34;20105;-71
2022/11/25 08:43:41;;;;;;;87.32;26.00;;;;;;;2.65;100.00;98934.13;4192647;34;20098;-71
2022/11/25 08:46:12;;;;;;;70.72;25.80;;;;;;;2.93;100.00;98978.41;4194964;34;20107;-71
2022/11/25 08:48:40;;;;;;;79.20;27.70;;;;;;;2.69;100.00;98938.84;4195122;34;20069;-72
2022/11/25 08:51:10;;;;;;;73.72;25.85;;;;;;;3.07;100.00;98969.44;4194209;34;20035;-72
2022/11/25 08:53:37;;;;;;;86.65;25.27;;;;;;;3.13;100.00;98957.97;4193726;34;20184;-71
2022/11/25 08:56:05;;;;;;;75.97;23.48;;;;;;;2.74;100.00;98975.47;4208413;34;20167;-72
2022/11/25 08:58:32;;;;;;;73.40;24.65;;;;;;;2.72;100.00;98954.41;4208552;34;20039;-71
2022/11/25 09:01:00;;;;;;;86.12;27.55;;;;;;;2.68;100.00;98971.78;4233022;33;20068;-72
2022/11/25 09:03:26;;;;;;;83.45;28.48;;;;;;;2.65;100.00;98982.81;4238885;33;20046;-71
2022/11/25 09:05:53;;;;;;;84.97;26.87;;;;;;;2.81;100.00;98983.47;4237528;33;20043;-71
2022/11/25 09:08:19;;;;;;;85.25;28.20;;;;;;;2.89;100.00;98981.47;4239926;33;20193;-71
2022/11/25 09:10:46;;;;;;;71.75;26.50;;;;;;;2.83;100.00;98955.66;4240148;33;20027;-73
2022/11/25 09:13:12;;;;;;;88.55;25.85;;;;;;;3.13;100.00;98984.59;4255723;33;20034;-72
2022/11/25 09:15:39;;;;;;;82.03;25.77;;;;;;;3.18;100.00;98981.31;4254346;33;20081;-72
2022/11/25 09:18:09;;;;;;;83.03;27.25;;;;;;;3.21;100.00;98987.03;4252432;33;20134;-71
2022/11/25 09:20:39;;;;;;;90.20;28.98;;;;;;;3.24;100.00;98986.66;4218490;33;20055;-70
2022/11/25 09:23:07;;;;;;;99.37;31.05;;;;;;;2.74;100.00;98956.87;4225920;34;20031;-71
2022/11/25 09:25:34;;;;;;;67.82;25.85;;;;;;;3.02;100.00;98990.50;4210393;34;20039;-70
2022/11/25 09:28:02;;;;;;;91.18;27.75;;;;;;;3.02;100.00;98982.53;4206322;34;20042;-71
2022/11/25 09:30:30;;;;;;;77.00;25.95;;;;;;;2.80;100.00;98987.97;4221009;34;20324;-71
2022/11/25 09:32:56;;;;;;;64.65;22.45;;;;;;;3.07;100.00;98980.88;4222708;34;20166;-72
2022/11/25 09:35:24;;;;;;;85.62;28.48;;;;;;;2.52;100.00;98986.25;4217610;34;20039;-71
2022/11/25 09:37:51;;;;;;;70.60;24.20;;;;;;;2.79;100.00;98989.00;4209346;34;20035;-70
2022/11/25 09:40:25;;;;;;;78.97;25.52;;;;;;;2.43;100.00;98958.22;4207905;34;20063;-71
2022/11/25 09:46:41;;;;;;;79.50;26.20;;;;;;;2.94;100.00;98964.09;4180299;34;20063;-71
2022/11/25 09:49:23;;;;;;;77.12;25.05;;;;;;;2.95;100.00;98993.13;4176030;34;20058;-71
2022/11/25 09:52:08;;;;;;;74.95;24.63;;;;;;;2.62;100.00;99006.34;4183533;34;20578;-71
2022/11/25 09:54:41;;;;;;;78.65;26.20;;;;;;;2.37;100.00;98969.63;4170496;34;20040;-71
2022/11/25 09:57:20;;;;;;;82.18;27.75;;;;;;;2.66;100.00;98999.59;4172182;34;20055;-72
2022/11/25 10:00:00;;;;;;;88.05;28.95;;;;;;;2.78;100.00;99005.97;4170117;34;20040;-72
2022/11/25 10:02:30;;;;;;;76.37;26.05;;;;;;;2.93;100.00;98965.09;4175011;34;20189;-71
2022/11/25 10:05:11;;;;;;;93.85;29.58;;;;;;;2.85;100.00;98966.91;4183049;34;20065;-71
2022/11/25 10:07:50;;;;;;;88.17;26.93;;;;;;;2.76;100.00;98969.97;4182838;34;20066;-73
2022/11/25 10:10:26;;;;;;;86.07;27.73;;;;;;;2.74;100.00;98991.44;4183393;34;20213;-74
2022/11/25 10:12:55;;;;;;;81.63;28.90;;;;;;;2.80;100.00;99001.28;4184819;34;20150;-71
2022/11/25 10:15:38;;;;;;;91.70;28.98;;;;;;;3.18;100.00;98998.09;4180402;34;20042;-71
2022/11/25 10:18:17;;;;;;;95.00;33.80;;;;;;;3.37;100.00;99001.00;4178837;34;20074;-71
2022/11/25 10:20:48;;;;;;;91.32;31.12;;;;;;;3.43;100.00;98994.81;4180638;34;20074;-72
2022/11/25 10:23:30;;;;;;;88.97;30.98;;;;;;;3.37;100.00;98979.69;4179385;34;20064;-71
2022/11/25 10:26:02;;;;;;;97.85;32.17;;;;;;;3.40;100.00;98966.78;4168549;34;20054;-71
2022/11/25 10:28:31;;;;;;;93.00;32.72;;;;;;;3.47;100.00;98984.63;4147603;34;20435;-71
2022/11/25 10:31:09;;;;;;;100.75;35.28;;;;;;;3.64;100.00;98997.31;4171723;34;20378;-72
2022/11/25 10:33:44;;;;;;;97.07;33.10;;;;;;;3.56;100.00;98973.56;4195277;34;20370;-70
2022/11/25 10:36:16;;;;;;;98.68;33.70;;;;;;;3.59;100.00;98967.81;4165412;34;20515;-69
2022/11/25 10:39:01;;;;;;;88.78;33.28;;;;;;;3.72;100.00;98992.78;4168403;34;20499;-69
2022/11/25 10:41:36;;;;;;;82.55;30.88;;;;;;;3.87;100.00;98996.06;4168530;34;20036;-71
2022/11/25 10:44:05;;;;;;;93.37;31.73;;;;;;;3.47;100.00;98966.78;4167964;34;20526;-69
2022/11/25 10:46:32;;;;;;;85.30;31.62;;;;;;;3.35;100.00;99000.34;4168513;34;21062;-70
2022/11/25 10:49:04;;;;;;;100.22;37.60;;;;;;;3.78;100.00;99002.63;4167489;34;20118;-70
2022/11/25 10:51:39;;;;;;;;;;;;;;;3.47;100.00;98969.44;4168482;34;20386;-70
2022/11/25 10:54:21;;;;;;;99.03;35.92;;;;;;;3.90;100.00;99006.28;4165879;34;19943;-69
2022/11/25 10:56:58;;;;;;;96.57;37.63;;;;;;;3.66;100.00;98998.94;4168279;34;20087;-70
2022/11/25 10:59:33;;;;;;;94.40;37.45;;;;;;;3.64;100.00;98994.63;4179804;34;20061;-70
2022/11/25 11:02:38;;;;;;;97.82;36.03;;;;;;;3.70;100.00;98973.53;4180117;34;20073;-70
2022/11/25 11:05:08;;;;;;;108.00;38.92;;;;;;;4.01;100.00;98994.19;4156556;34;20037;-70
2022/11/25 11:07:40;;;;;;;103.78;37.25;;;;;;;3.84;100.00;98996.47;4154308;34;20066;-70
2022/11/25 11:10:18;;;;;;;96.93;33.95;;;;;;;3.62;100.00;98975.41;4156745;34;20044;-69
2022/11/25 11:13:03;;;;;;;100.35;35.15;;;;;;;3.47;100.00;98996.06;4148419;34;20358;-70
2022/11/25 11:15:52;;;;;;;96.78;32.83;;;;;;;3.49;100.00;98998.53;4165661;34;20086;-69
2022/11/25 11:18:37;;;;;;;88.60;30.05;;;;;;;3.58;100.00;98998.12;4167755;34;20031;-69
2022/11/25 11:21:07;;;;;;;87.53;31.17;;;;;;;3.74;100.00;98996.06;4168105;34;20055;-69
2022/11/25 11:23:56;;;;;;;91.85;36.65;;;;;;;3.81;100.00;98986.22;4168317;34;20052;-69
2022/11/25 11:26:33;;;;;;;112.05;39.70;;;;;;;3.75;100.00;98992.38;4167782;34;20074;-69
2022/11/25 11:29:13;;;;;;;94.35;29.85;;;;;;;3.71;100.00;99002.63;4168179;34;20096;-69
2022/11/25 11:31:46;;;;;;;89.07;34.28;;;;;;;3.60;100.00;98996.06;4179765;34;20099;-68
2022/11/25 11:34:48;;;;;;;86.12;30.77;;;;;;;3.26;100.00;98973.13;4182608;34;20374;-70
2022/11/25 11:37:44;;;;;;;84.40;30.23;;;;;;;3.58;100.00;99003.44;4207645;34;20056;-70
2022/11/25 11:40:31;;;;;;;89.28;32.47;;;;;;;3.47;100.00;99000.59;4239444;33;20404;-70
2022/11/25 11:43:19;;;;;;;94.00;30.80;;;;;;;3.64;100.00;98997.31;4255388;33;20115;-69
2022/11/25 11:45:54;;;;;;;85.47;33.53;;;;;;;3.50;100.00;98963.72;4255067;33;20042;-69
2022/11/25 11:48:28;;;;;;;88.20;33.17;;;;;;;3.85;100.00;99003.44;4254989;33;20111;-69
2022/11/25 11:51:19;;;;;;;93.60;34.03;;;;;;;3.80;100.00;98968.62;4255005;33;20042;-69
2022/11/25 11:54:12;;;;;;;94.07;33.72;;;;;;;3.64;100.00;98997.31;4253923;33;20059;-68
2022/11/25 11:56:43;;;;;;;91.60;34.72;;;;;;;3.73;100.00;98999.75;4249356;33;20042;-69
2022/11/25 11:59:48;;;;;;;85.15;33.28;;;;;;;3.60;100.00;99005.91;4236603;33;20068;-69
2022/11/25 12:02:40;;;;;;;88.30;32.58;;;;;;;3.72;100.00;99008.75;4411419;27;20041;-69
2022/11/25 12:05:10;;;;;;;103.75;36.97;;;;;;;3.58;100.00;99008.78;4235978;33;20113;-70
2022/11/25 12:07:51;;;;;;;95.18;36.88;;;;;;;3.61;100.00;98981.75;4227498;33;20046;-69
2022/11/25 12:10:26;;;;;;;95.45;32.75;;;;;;;3.40;100.00;98974.78;4237725;33;20095;-70
2022/11/25 12:12:55;;;;;;;85.90;29.95;;;;;;;3.96;100.00;99008.13;4237790;33;20054;-71
2022/11/25 12:15:44;;;;;;;88.55;33.95;;;;;;;3.67;100.00;99000.56;4236565;33;20047;-69
2022/11/25 12:18:36;;;;;;;83.55;34.15;;;;;;;3.84;100.00;99007.12;4223244;34;20054;-70
2022/11/25 12:21:07;;;;;;;91.12;32.15;;;;;;;3.94;100.00;99002.22;4203359;34;20172;-71
2022/11/25 12:24:02;;;;;;;83.40;30.92;;;;;;;3.30;100.00;98941.59;4223528;34;20057;-70
2022/11/25 12:27:02;;;;;;;73.25;29.05;;;;;;;3.99;100.00;99004.25;4221770;34;20070;-70
2022/11/25 12:29:38;;;;;;;73.50;30.48;;;;;;;3.75;100.00;98998.53;4221799;34;20107;-70
2022/11/25 12:32:20;;;;;;;91.40;33.92;;;;;;;3.68;100.00;99002.22;4221697;33;20042;-69
2022/11/25 12:35:00;;;;;;;86.87;33.80;;;;;;;4.04;100.00;99006.25;4223448;33;20050;-70
2022/11/25 12:37:55;;;;;;;87.97;30.62;;;;;;;3.99;100.00;99005.06;4221615;34;20449;-70
2022/11/25 12:41:00;;;;;;;94.18;31.62;;;;;;;3.68;100.00;99007.53;4223843;33;20089;-70
2022/11/25 12:43:33;;;;;;;85.85;30.15;;;;;;;3.62;100.00;99012.69;4222939;34;20087;-70
2022/11/25 12:46:11;;;;;;;73.53;27.50;;;;;;;3.37;100.00;99017.78;4223495;33;20081;-70
2022/11/25 12:48:41;;;;;;;94.18;30.52;;;;;;;2.82;100.00;99028.47;4209053;34;20420;-69
2022/11/25 12:51:48;;;;;;;95.82;26.33;;;;;;;2.79;100.00;99036.84;4209317;34;20059;-69
2022/11/25 12:54:47;;;;;;;76.95;24.40;;;;;;;2.49;100.00;99039.81;4179144;34;20044;-69
2022/11/25 12:57:42;;;;;;;108.07;26.12;;;;;;;2.34;100.00;99041.75;4179574;34;20105;-73
2022/11/25 13:00:32;;;;;;;123.07;28.40;;;;;;;2.54;100.00;99013.44;4185845;34;20059;-73
2022/11/25 13:03:25;;;;;;;212.80;28.77;;;;;;;2.72;100.00;99051.97;4183893;34;20551;-73
2022/11/25 13:06:22;;;;;;;102.20;20.65;;;;;;;2.91;100.00;99047.75;4183973;34;20489;-73
2022/11/25 13:09:13;;;;;;;210.02;30.05;;;;;;;2.43;100.00;99048.56;4196515;34;20086;-72
2022/11/25 13:11:42;;;;;;;72.40;16.90;;;;;;;2.66;100.00;99052.75;4197618;34;20085;-72
2022/11/25 13:14:46;;;;;;;85.20;22.65;;;;;;;2.35;100.00;99051.38;4205828;34;20245;-72
2022/11/25 13:17:22;;;;;;;254.87;29.25;;;;;;;2.45;100.00;99049.19;4207053;34;20756;-72
2022/11/25 13:19:48;;;;;;;125.32;24.33;;;;;;;2.63;100.00;99053.16;4210817;34;20081;-72
2022/11/25 13:22:25;;;;;;;239.15;33.58;;;;;;;2.60;100.00;99050.88;4195625;34;20059;-74
2022/11/25 13:24:58;;;;;;;143.90;29.90;;;;;;;2.82;100.00;99051.59;4193993;34;20744;-72
2022/11/25 13:27:31;;;;;;;233.27;37.17;;;;;;;2.68;100.00;99056.03;4164664;34;20128;-73
2022/11/25 13:30:00;;;;;;;162.70;32.40;;;;;;;2.82;100.00;99019.69;4167431;34;20103;-73
2022/11/25 13:32:34;;;;;;;155.68;27.70;;;;;;;3.04;100.00;99049.63;4172449;34;20039;-70
2022/11/25 13:35:25;;;;;;;146.45;25.27;;;;;;;2.81;100.00;99045.47;4176895;34;20547;-71
2022/11/25 13:40:27;;;;;;;251.52;34.92;;;;;;;2.70;100.00;99054.03;4175323;34;20054;-72
2022/11/25 13:42:56;;;;;;;355.08;37.67;;;;;;;2.89;100.00;99058.59;4179415;34;20096;-71
2022/11/25 13:45:26;;;;;;;155.55;27.98;;;;;;;2.94;100.00;99059.84;4177762;34;20056;-71